createdAt,value
2023-03-28T00:01:16.357Z,16.10
2023-03-28T00:03:45.582Z,16.10
2023-03-28T00:06:19.015Z,16.00
2023-03-28T00:08:51.475Z,15.90
2023-03-28T00:11:22.172Z,15.90
2023-03-28T00:13:58.251Z,15.80
2023-03-28T00:16:32.653Z,15.80
2023-03-28T00:19:02.538Z,15.70
2023-03-28T00:21:33.955Z,15.60
2023-03-28T00:24:11.034Z,15.60
2023-03-28T00:27:00.883Z,15.50
2023-03-28T00:29:30.364Z,15.50
2023-03-28T00:31:59.517Z,15.50
2023-03-28T00:34:28.825Z,15.40
2023-03-28T00:36:57.868Z,15.40
2023-03-28T00:39:29.671Z,15.40
2023-03-28T00:42:01.812Z,15.40
2023-03-28T00:44:46.656Z,15.40
2023-03-28T00:47:31.109Z,15.40
2023-03-28T00:50:05.415Z,15.40
2023-03-28T00:52:40.231Z,15.30
2023-03-28T00:55:15.441Z,15.20
2023-03-28T00:57:46.227Z,15.20
2023-03-28T01:00:19.106Z,15.10
2023-03-28T01:02:52.632Z,15.00
2023-03-28T01:05:24.946Z,14.90
2023-03-28T01:07:59.663Z,14.80
2023-03-28T01:10:31.541Z,14.70
2023-03-28T01:13:00.754Z,14.60
2023-03-28T01:15:31.463Z,14.50
2023-03-28T01:18:03.359Z,14.50
2023-03-28T01:20:41.540Z,14.10
2023-03-28T01:23:34.883Z,14.60
2023-03-28T01:26:20.327Z,14.60
2023-03-28T01:29:03.995Z,14.70
2023-03-28T01:32:11.579Z,14.80
2023-03-28T01:35:26.510Z,14.70
2023-03-28T01:37:59.488Z,14.60
2023-03-28T01:40:37.303Z,14.20
2023-03-28T01:43:19.872Z,14.40
2023-03-28T01:45:57.205Z,14.40
2023-03-28T01:48:34.658Z,14.20
2023-03-28T01:51:07.164Z,14.00
2023-03-28T01:53:40.956Z,13.90
2023-03-28T01:56:12.189Z,13.70
2023-03-28T01:58:48.763Z,13.60
2023-03-28T02:01:37.036Z,13.60
2023-03-28T02:04:20.225Z,13.60
2023-03-28T02:07:00.715Z,13.60
2023-03-28T02:09:36.134Z,13.60
2023-03-28T02:12:11.892Z,13.70
2023-03-28T02:15:05.139Z,13.80
2023-03-28T02:17:35.312Z,13.90
2023-03-28T02:20:24.947Z,14.00
2023-03-28T02:23:14.955Z,13.80
2023-03-28T02:25:51.834Z,14.10
2023-03-28T02:28:40.516Z,14.10
2023-03-28T02:31:13.908Z,14.20
2023-03-28T02:33:43.639Z,14.20
2023-03-28T02:36:25.052Z,14.30
2023-03-28T02:38:59.311Z,14.30
2023-03-28T02:41:33.738Z,14.30
2023-03-28T02:44:11.745Z,14.40
2023-03-28T02:46:47.960Z,14.40
2023-03-28T02:49:29.949Z,14.50
2023-03-28T02:52:09.501Z,14.70
2023-03-28T02:54:42.059Z,14.80
2023-03-28T02:57:36.759Z,15.00
2023-03-28T03:00:11.764Z,15.10
2023-03-28T03:02:41.448Z,15.20
2023-03-28T03:05:10.260Z,15.20
2023-03-28T03:07:39.374Z,15.30
2023-03-28T03:10:09.685Z,15.30
2023-03-28T03:12:39.954Z,15.30
2023-03-28T03:15:15.438Z,15.30
2023-03-28T03:18:05.731Z,15.20
2023-03-28T03:20:35.990Z,15.10
2023-03-28T03:23:05.098Z,15.00
2023-03-28T03:25:36.175Z,14.80
2023-03-28T03:28:27.325Z,14.80
2023-03-28T03:30:56.455Z,14.60
2023-03-28T03:33:47.952Z,14.50
2023-03-28T03:36:19.052Z,14.50
2023-03-28T03:38:47.906Z,14.60
2023-03-28T03:41:22.245Z,14.70
2023-03-28T03:43:52.246Z,14.80
2023-03-28T03:46:20.927Z,15.00
2023-03-28T03:48:51.127Z,15.10
2023-03-28T03:51:20.214Z,15.20
2023-03-28T03:53:51.934Z,15.40
2023-03-28T03:56:24.343Z,15.40
2023-03-28T03:58:56.692Z,15.50
2023-03-28T04:01:30.516Z,15.60
2023-03-28T04:04:18.096Z,15.70
2023-03-28T04:07:12.700Z,15.80
2023-03-28T04:09:41.277Z,15.90
2023-03-28T04:12:14.692Z,15.90
2023-03-28T04:14:49.055Z,16.00
2023-03-28T04:17:36.576Z,16.00
2023-03-28T04:20:15.506Z,15.80
2023-03-28T04:23:06.107Z,15.70
2023-03-28T04:25:36.381Z,15.50
2023-03-28T04:28:13.458Z,15.30
2023-03-28T04:30:58.360Z,15.20
2023-03-28T04:33:46.095Z,15.00
2023-03-28T04:36:18.989Z,14.90
2023-03-28T04:38:58.599Z,14.90
2023-03-28T04:41:48.937Z,14.90
2023-03-28T04:44:28.658Z,14.90
2023-03-28T04:47:04.400Z,14.80
2023-03-28T04:49:36.865Z,14.80
2023-03-28T04:52:15.269Z,14.70
2023-03-28T04:54:49.131Z,14.50
2023-03-28T04:57:21.836Z,14.30
2023-03-28T04:59:54.954Z,14.00
2023-03-28T05:02:45.020Z,13.70
2023-03-28T05:05:18.705Z,13.50
2023-03-28T05:07:47.416Z,13.30
2023-03-28T05:10:16.647Z,13.00
2023-03-28T05:12:45.494Z,12.70
2023-03-28T05:15:22.275Z,12.40
2023-03-28T05:18:16.794Z,12.30
2023-03-28T05:20:45.567Z,12.20
2023-03-28T05:23:14.113Z,12.10
2023-03-28T05:25:44.971Z,12.00
2023-03-28T05:28:13.742Z,11.90
2023-03-28T05:30:49.700Z,11.90
2023-03-28T05:33:19.840Z,12.00
2023-03-28T05:35:49.874Z,12.00
2023-03-28T05:38:18.464Z,12.00
2023-03-28T05:40:52.652Z,12.00
2023-03-28T05:43:21.401Z,12.10
2023-03-28T05:45:50.283Z,12.10
2023-03-28T05:48:23.147Z,12.10
2023-03-28T05:50:51.748Z,12.10
2023-03-28T05:53:20.500Z,12.10
2023-03-28T05:55:50.308Z,12.10
2023-03-28T05:58:20.334Z,12.00
2023-03-28T06:00:49.030Z,12.00
2023-03-28T06:03:18.283Z,12.10
2023-03-28T06:05:49.895Z,12.10
2023-03-28T06:08:21.917Z,12.10
2023-03-28T06:10:50.806Z,12.10
2023-03-28T06:13:31.744Z,12.10
2023-03-28T06:16:00.605Z,12.10
2023-03-28T06:18:32.876Z,12.10
2023-03-28T06:21:03.104Z,12.10
2023-03-28T06:23:31.997Z,12.00
2023-03-28T06:26:01.644Z,12.10
2023-03-28T06:28:37.282Z,12.20
2023-03-28T06:31:21.616Z,12.30
2023-03-28T06:33:51.118Z,12.30
2023-03-28T06:36:23.367Z,12.40
2023-03-28T06:38:53.734Z,12.40
2023-03-28T06:41:40.914Z,12.40
2023-03-28T06:44:09.664Z,12.40
2023-03-28T06:46:56.456Z,12.40
2023-03-28T06:49:25.124Z,12.50
2023-03-28T06:52:13.529Z,12.60
2023-03-28T06:54:44.692Z,12.50
2023-03-28T06:57:14.656Z,12.70
2023-03-28T06:59:44.331Z,12.80
2023-03-28T07:02:19.029Z,12.90
2023-03-28T07:04:48.023Z,12.90
2023-03-28T07:07:18.754Z,12.90
2023-03-28T07:09:49.069Z,13.00
2023-03-28T07:12:18.898Z,12.70
2023-03-28T07:14:48.865Z,13.10
2023-03-28T07:17:17.747Z,13.20
2023-03-28T07:19:49.438Z,13.40
2023-03-28T07:22:19.552Z,13.50
2023-03-28T07:24:48.272Z,13.70
2023-03-28T07:27:17.842Z,13.90
2023-03-28T07:29:47.875Z,14.00
2023-03-28T07:32:17.734Z,14.10
2023-03-28T07:34:48.006Z,14.20
2023-03-28T07:37:24.833Z,14.20
2023-03-28T07:40:14.919Z,14.20
2023-03-28T07:42:44.269Z,14.00
2023-03-28T07:45:13.628Z,13.90
2023-03-28T07:47:43.207Z,13.80
2023-03-28T07:50:12.946Z,13.70
2023-03-28T07:52:45.818Z,13.50
2023-03-28T07:55:15.906Z,13.40
2023-03-28T07:57:50.248Z,13.20
2023-03-28T08:00:34.362Z,13.00
2023-03-28T08:03:36.531Z,12.70
2023-03-28T08:06:16.605Z,12.70
2023-03-28T08:08:55.172Z,12.50
2023-03-28T08:11:31.199Z,12.30
2023-03-28T08:14:00.187Z,12.30
2023-03-28T08:16:31.059Z,12.20
2023-03-28T08:19:10.484Z,12.20
2023-03-28T08:21:59.049Z,12.10
2023-03-28T08:24:36.226Z,12.00
2023-03-28T08:27:13.287Z,12.00
2023-03-28T08:30:00.920Z,12.00
2023-03-28T08:32:32.374Z,11.90
2023-03-28T08:35:06.106Z,11.90
2023-03-28T08:37:35.328Z,11.90
2023-03-28T08:40:09.015Z,11.80
2023-03-28T08:43:08.271Z,11.90
2023-03-28T08:45:49.529Z,11.90
2023-03-28T08:48:24.086Z,11.90
2023-03-28T08:50:59.481Z,12.00
2023-03-28T08:53:34.531Z,12.00
2023-03-28T08:56:07.966Z,12.10
2023-03-28T08:58:50.360Z,12.10
2023-03-28T09:01:22.530Z,12.20
2023-03-28T09:03:52.001Z,12.20
2023-03-28T09:06:31.251Z,12.30
2023-03-28T09:09:32.489Z,12.40
2023-03-28T09:12:46.369Z,12.50
2023-03-28T09:15:40.241Z,12.70
2023-03-28T09:18:26.103Z,12.80
2023-03-28T09:21:03.791Z,13.00
2023-03-28T09:24:03.256Z,13.10
2023-03-28T09:26:35.114Z,13.20
2023-03-28T09:29:13.216Z,13.30
2023-03-28T09:31:47.310Z,13.40
2023-03-28T09:34:23.649Z,13.50
2023-03-28T09:36:57.619Z,13.60
2023-03-28T09:39:51.605Z,13.70
2023-03-28T09:42:32.821Z,13.80
2023-03-28T09:45:38.211Z,13.90
2023-03-28T09:48:09.029Z,14.10
2023-03-28T09:50:48.316Z,14.10
2023-03-28T09:53:24.148Z,14.00
2023-03-28T09:56:03.530Z,13.90
2023-03-28T09:58:51.205Z,13.80
2023-03-28T10:01:44.046Z,13.60
2023-03-28T10:04:37.954Z,13.50
2023-03-28T10:07:43.940Z,13.40
2023-03-28T10:10:28.964Z,13.40
2023-03-28T10:13:08.143Z,13.20
2023-03-28T10:15:43.820Z,13.10
2023-03-28T10:18:21.096Z,13.00
2023-03-28T10:21:14.026Z,13.00
2023-03-28T10:23:49.542Z,13.10
2023-03-28T10:26:24.476Z,13.10
2023-03-28T10:28:55.672Z,13.20
2023-03-28T10:31:30.781Z,13.30
2023-03-28T10:34:39.749Z,13.40
2023-03-28T10:37:28.608Z,13.40
2023-03-28T10:40:30.334Z,13.50
2023-03-28T10:43:14.113Z,13.60
2023-03-28T10:46:17.539Z,13.60
2023-03-28T10:49:07.687Z,13.70
2023-03-28T10:51:46.279Z,13.80
2023-03-28T10:54:43.510Z,13.80
2023-03-28T10:57:28.822Z,13.90
2023-03-28T11:00:09.815Z,13.80
2023-03-28T11:03:19.854Z,13.70
2023-03-28T11:06:08.013Z,13.60
2023-03-28T11:08:54.742Z,13.50
2023-03-28T11:11:37.720Z,13.40
2023-03-28T11:14:21.321Z,13.40
2023-03-28T11:16:59.183Z,13.30
2023-03-28T11:19:58.402Z,13.20
2023-03-28T11:22:45.851Z,13.20
2023-03-28T11:25:32.990Z,13.10
2023-03-28T11:28:26.426Z,13.00
2023-03-28T11:31:02.357Z,13.00
2023-03-28T11:33:49.439Z,13.00
2023-03-28T11:36:29.910Z,12.90
2023-03-28T11:39:05.596Z,12.70
2023-03-28T11:41:41.174Z,12.60
2023-03-28T11:44:19.409Z,12.50
2023-03-28T11:46:54.684Z,12.40
2023-03-28T11:49:28.705Z,12.20
2023-03-28T11:52:03.053Z,12.00
2023-03-28T11:54:37.388Z,11.90
2023-03-28T11:57:14.171Z,11.80
2023-03-28T11:59:56.252Z,11.60
2023-03-28T12:02:41.664Z,11.40
2023-03-28T12:05:21.138Z,11.40
2023-03-28T12:07:57.033Z,11.30
2023-03-28T12:10:36.724Z,11.20
2023-03-28T12:13:18.891Z,11.10
2023-03-28T12:16:13.422Z,10.90
2023-03-28T12:18:45.718Z,10.80
2023-03-28T12:21:34.858Z,10.70
2023-03-28T12:24:14.353Z,10.70
2023-03-28T12:27:02.420Z,10.70
2023-03-28T12:29:40.790Z,10.60
2023-03-28T12:32:34.725Z,10.60
2023-03-28T12:35:15.574Z,10.60
2023-03-28T12:38:08.078Z,10.60
2023-03-28T12:40:56.851Z,10.60
2023-03-28T12:43:32.340Z,10.60
2023-03-28T12:46:06.147Z,10.50
2023-03-28T12:48:42.461Z,10.50
2023-03-28T12:51:18.123Z,10.50
2023-03-28T12:54:02.085Z,10.40
2023-03-28T12:56:31.289Z,10.40
2023-03-28T12:59:00.853Z,10.40
2023-03-28T13:01:49.577Z,10.40
2023-03-28T13:04:29.994Z,10.30
2023-03-28T13:07:27.743Z,10.30
2023-03-28T13:10:06.568Z,10.20
2023-03-28T13:12:54.378Z,10.20
2023-03-28T13:15:32.675Z,10.00
2023-03-28T13:18:31.862Z,9.90
2023-03-28T13:21:04.490Z,9.70
2023-03-28T13:23:46.310Z,9.60
2023-03-28T13:26:15.542Z,9.50
2023-03-28T13:28:46.680Z,9.40
2023-03-28T13:31:23.003Z,9.30
2023-03-28T13:33:58.874Z,9.20
2023-03-28T13:36:30.893Z,9.20
2023-03-28T13:39:08.659Z,9.10
2023-03-28T13:41:56.468Z,9.00
2023-03-28T13:44:32.860Z,9.00
2023-03-28T13:47:02.019Z,8.90
2023-03-28T13:49:42.861Z,8.80
2023-03-28T13:52:17.072Z,8.80
2023-03-28T13:54:54.378Z,8.70
2023-03-28T13:57:26.266Z,8.70
2023-03-28T13:59:58.793Z,8.70
2023-03-28T14:02:38.150Z,8.70
2023-03-28T14:05:16.817Z,8.70
2023-03-28T14:07:45.879Z,8.60
2023-03-28T14:10:30.627Z,8.50
2023-03-28T14:13:02.732Z,8.50
2023-03-28T14:15:38.817Z,8.50
2023-03-28T14:18:13.764Z,8.50
2023-03-28T14:21:03.834Z,8.50
2023-03-28T14:23:36.793Z,8.50
2023-03-28T14:26:10.660Z,8.50
2023-03-28T14:28:42.201Z,8.50
2023-03-28T14:31:35.139Z,8.50
2023-03-28T14:34:17.706Z,8.50
2023-03-28T14:36:59.727Z,8.60
2023-03-28T14:39:30.314Z,8.60
2023-03-28T14:42:02.696Z,8.70
2023-03-28T14:44:33.444Z,8.70
2023-03-28T14:47:02.561Z,8.70
2023-03-28T14:49:33.081Z,8.70
2023-03-28T14:52:04.598Z,8.80
2023-03-28T14:54:37.286Z,8.80
2023-03-28T14:57:07.064Z,8.80
2023-03-28T14:59:40.987Z,8.80
2023-03-28T15:02:22.502Z,8.80
2023-03-28T15:04:52.606Z,8.80
2023-03-28T15:07:27.012Z,8.80
2023-03-28T15:10:08.900Z,8.80
2023-03-28T15:12:46.786Z,8.80
2023-03-28T15:15:22.910Z,8.80
2023-03-28T15:17:54.185Z,8.80
2023-03-28T15:20:28.343Z,8.80
2023-03-28T15:23:01.539Z,8.90
2023-03-28T15:25:32.557Z,8.90
2023-03-28T15:28:06.534Z,8.90
2023-03-28T15:30:46.387Z,8.90
2023-03-28T15:33:19.481Z,9.00
2023-03-28T15:35:49.624Z,9.00
2023-03-28T15:38:23.440Z,9.00
2023-03-28T15:40:54.262Z,9.00
2023-03-28T15:43:41.689Z,8.90
2023-03-28T15:46:13.452Z,8.90
2023-03-28T15:48:57.526Z,8.90
2023-03-28T15:51:47.536Z,8.80
2023-03-28T15:54:28.413Z,8.60
2023-03-28T15:57:02.534Z,8.70
2023-03-28T15:59:36.356Z,8.70
2023-03-28T16:02:37.482Z,8.70
2023-03-28T16:05:08.261Z,8.60
2023-03-28T16:07:48.611Z,8.60
2023-03-28T16:10:22.047Z,8.60
2023-03-28T16:13:16.999Z,8.60
2023-03-28T16:16:09.894Z,8.60
2023-03-28T16:18:49.205Z,8.60
2023-03-28T16:21:19.260Z,8.70
2023-03-28T16:23:48.831Z,8.70
2023-03-28T16:26:19.383Z,8.70
2023-03-28T16:28:48.658Z,8.70
2023-03-28T16:31:17.639Z,8.70
2023-03-28T16:33:46.623Z,8.70
2023-03-28T16:36:15.643Z,8.70
2023-03-28T16:38:45.234Z,8.60
2023-03-28T16:41:14.236Z,8.60
2023-03-28T16:43:44.905Z,8.50
2023-03-28T16:46:13.971Z,8.50
2023-03-28T16:48:42.903Z,8.50
2023-03-28T16:51:11.837Z,8.50
2023-03-28T16:53:41.891Z,8.50
2023-03-28T16:56:12.437Z,8.50
2023-03-28T16:58:41.646Z,8.40
2023-03-28T17:01:14.101Z,8.40
2023-03-28T17:04:01.565Z,8.40
2023-03-28T17:06:31.077Z,8.40
2023-03-28T17:09:00.129Z,8.40
2023-03-28T17:11:29.066Z,8.40
2023-03-28T17:13:59.288Z,8.40
2023-03-28T17:16:48.133Z,8.40
2023-03-28T17:19:19.439Z,8.40
2023-03-28T17:21:48.676Z,8.50
2023-03-28T17:24:18.316Z,8.50
2023-03-28T17:26:47.384Z,8.50
2023-03-28T17:29:16.759Z,8.50
2023-03-28T17:32:46.635Z,8.60
2023-03-28T17:35:20.032Z,8.60
2023-03-28T17:37:54.874Z,8.50
2023-03-28T17:40:31.393Z,8.50
2023-03-28T17:43:02.525Z,8.50
2023-03-28T17:45:31.810Z,8.50
2023-03-28T17:48:02.205Z,8.40
2023-03-28T17:50:31.202Z,8.50
2023-03-28T17:53:01.498Z,8.50
2023-03-28T17:55:30.659Z,8.40
2023-03-28T17:57:59.762Z,8.50
2023-03-28T18:00:31.339Z,8.40
2023-03-28T18:03:04.802Z,8.40
2023-03-28T18:06:03.690Z,8.40
2023-03-28T18:08:33.625Z,8.40
2023-03-28T18:11:03.787Z,8.40
2023-03-28T18:13:33.027Z,8.40
2023-03-28T18:16:04.377Z,8.40
2023-03-28T18:18:35.383Z,8.40
2023-03-28T18:21:04.526Z,8.50
2023-03-28T18:23:33.663Z,8.40
2023-03-28T18:26:03.606Z,8.40
2023-03-28T18:28:32.868Z,8.50
2023-03-28T18:31:09.694Z,8.50
2023-03-28T18:33:40.364Z,8.50
2023-03-28T18:36:10.686Z,8.50
2023-03-28T18:38:42.470Z,8.50
2023-03-28T18:41:12.942Z,8.50
2023-03-28T18:43:55.350Z,8.50
2023-03-28T18:47:10.822Z,8.40
2023-03-28T18:49:46.863Z,8.40
2023-03-28T18:52:17.191Z,8.40
2023-03-28T18:54:54.059Z,8.40
2023-03-28T18:57:25.731Z,8.30
2023-03-28T18:59:59.576Z,8.30
2023-03-28T19:02:29.458Z,8.30
2023-03-28T19:04:59.996Z,8.30
2023-03-28T19:07:29.103Z,8.30
2023-03-28T19:09:58.234Z,8.30
2023-03-28T19:12:27.363Z,8.30
2023-03-28T19:14:56.472Z,8.30
2023-03-28T19:17:26.266Z,8.20
2023-03-28T19:19:56.217Z,8.20
2023-03-28T19:22:27.949Z,8.20
2023-03-28T19:24:57.864Z,8.20
2023-03-28T19:27:26.838Z,8.20
2023-03-28T19:29:55.847Z,8.20
2023-03-28T19:32:46.787Z,8.20
2023-03-28T19:35:16.195Z,8.00
2023-03-28T19:37:47.265Z,8.20
2023-03-28T19:40:44.117Z,8.20
2023-03-28T19:43:13.520Z,8.30
2023-03-28T19:45:42.915Z,8.10
2023-03-28T19:48:11.928Z,8.10
2023-03-28T19:50:41.543Z,8.10
2023-03-28T19:53:12.090Z,8.10
2023-03-28T19:55:41.054Z,8.00
2023-03-28T19:58:10.448Z,8.00
2023-03-28T20:00:39.400Z,8.00
2023-03-28T20:03:08.481Z,8.00
2023-03-28T20:05:43.184Z,8.00
2023-03-28T20:08:14.639Z,8.00
2023-03-28T20:10:45.068Z,8.00
2023-03-28T20:13:14.560Z,8.00
2023-03-28T20:15:45.396Z,8.00
2023-03-28T20:18:15.794Z,8.00
2023-03-28T20:20:45.081Z,8.00
2023-03-28T20:23:15.175Z,7.80
2023-03-28T20:25:48.509Z,8.10
2023-03-28T20:28:17.989Z,8.10
2023-03-28T20:30:47.235Z,8.10
2023-03-28T20:33:21.414Z,7.70
2023-03-28T20:35:58.728Z,8.10
2023-03-28T20:38:32.663Z,8.20
2023-03-28T20:41:01.987Z,8.30
2023-03-28T20:43:35.994Z,8.30
2023-03-28T20:46:05.029Z,8.40
2023-03-28T20:48:36.956Z,8.40
2023-03-28T20:51:06.237Z,8.40
2023-03-28T20:53:39.599Z,8.50
2023-03-28T20:56:09.768Z,8.90
2023-03-28T20:59:06.143Z,8.60
2023-03-28T21:01:39.788Z,8.60
2023-03-28T21:04:08.850Z,8.70
2023-03-28T21:06:38.482Z,8.70
2023-03-28T21:09:10.177Z,8.80
2023-03-28T21:11:40.678Z,8.80
2023-03-28T21:14:12.103Z,8.70
2023-03-28T21:17:00.161Z,8.70
2023-03-28T21:19:29.284Z,8.60
2023-03-28T21:21:58.275Z,8.50
2023-03-28T21:24:28.658Z,8.50
2023-03-28T21:26:57.552Z,8.40
2023-03-28T21:29:26.530Z,8.40
2023-03-28T21:31:55.409Z,8.40
2023-03-28T21:34:30.813Z,8.30
2023-03-28T21:36:59.835Z,8.30
2023-03-28T21:39:30.282Z,8.20
2023-03-28T21:41:59.360Z,8.30
2023-03-28T21:44:28.011Z,8.30
2023-03-28T21:47:04.454Z,8.30
2023-03-28T21:49:33.401Z,8.30
2023-03-28T21:52:02.011Z,8.20
2023-03-28T21:54:32.394Z,8.50
2023-03-28T21:57:01.109Z,8.60
2023-03-28T21:59:30.649Z,8.70
2023-03-28T22:01:59.238Z,8.70
2023-03-28T22:04:28.623Z,8.70
2023-03-28T22:06:57.348Z,8.60
2023-03-28T22:09:25.993Z,8.60
2023-03-28T22:11:56.447Z,8.60
2023-03-28T22:14:26.273Z,8.60
2023-03-28T22:16:55.383Z,8.60
2023-03-28T22:19:25.339Z,8.50
2023-03-28T22:21:53.916Z,8.50
2023-03-28T22:24:24.764Z,8.40
2023-03-28T22:26:54.680Z,8.30
2023-03-28T22:29:24.974Z,8.20
2023-03-28T22:31:53.799Z,8.10
2023-03-28T22:34:22.723Z,8.10
2023-03-28T22:36:51.360Z,8.10
2023-03-28T22:39:20.403Z,8.00
2023-03-28T22:41:49.377Z,8.00
2023-03-28T22:44:21.753Z,7.90
2023-03-28T22:46:52.235Z,7.80
2023-03-28T22:49:22.480Z,7.80
2023-03-28T22:51:51.140Z,7.70
2023-03-28T22:54:22.879Z,7.70
2023-03-28T22:56:51.571Z,8.10
2023-03-28T22:59:20.089Z,7.70
2023-03-28T23:01:48.641Z,7.70
2023-03-28T23:04:18.905Z,7.70
2023-03-28T23:06:50.543Z,7.70
2023-03-28T23:09:19.935Z,7.80
2023-03-28T23:11:48.635Z,7.90
2023-03-28T23:14:17.615Z,8.00
2023-03-28T23:16:46.291Z,8.00
2023-03-28T23:19:16.488Z,8.10
2023-03-28T23:21:46.567Z,8.10
2023-03-28T23:24:15.267Z,8.10
2023-03-28T23:26:43.796Z,8.10
2023-03-28T23:29:12.386Z,8.10
2023-03-28T23:31:41.108Z,8.20
2023-03-28T23:34:09.628Z,8.30
2023-03-28T23:36:41.438Z,8.30
2023-03-28T23:39:11.893Z,8.30
2023-03-28T23:41:41.172Z,8.30
2023-03-28T23:44:09.736Z,8.30
2023-03-28T23:46:38.784Z,8.30
2023-03-28T23:49:07.525Z,8.40
2023-03-28T23:51:36.684Z,8.30
2023-03-28T23:54:05.243Z,8.30
2023-03-28T23:56:35.308Z,7.80
2023-03-28T23:59:03.950Z,8.30
